Ceska — CQPF — position and weather

sailwx.info

Track history (hours):
 
Tides and Currents Weather Stations Pressure Air Temp Water Temp Dewpoint Dewpoint Depression Visibility Wind Speed Wind Dir Waves Ship Positions

Ceska

Last reported at 2018-Feb-16 22:08 UTC. Time now 2018-Feb-19 14:22 UTC.
Position N 30°06' W 013°24'.

Length 75 m; draft 5 m.

Type: Ship (hazmat cat A). MMSI: 255801990.

Date/timePositionNaut miles runAvg speedWind from/ knotsBaromVisibWave heightAir tempDewpointWater temp
2018-Feb-16 22:08N 30°06' W 013°24'0 1.0
2018-Feb-16 21:44N 30°06' W 013°23'0 0.9
2018-Feb-16 21:30N 30°07' W 013°23'28 9.2
2018-Feb-16 18:30N 29°45' W 013°43'9 9.9
2018-Feb-16 17:34N 29°38' W 013°50'1 9.9
2018-Feb-16 17:27N 29°37' W 013°51'7 9.8
2018-Feb-16 16:48N 29°32' W 013°55'3 9.8
2018-Feb-16 16:30N 29°30' W 013°57'3510.0
2018-Feb-16 12:58N 29°02' W 014°23'510.3
2018-Feb-16 12:30N 28°58' W 014°26'510.3
2018-Feb-16 12:00N 28°55' W 014°30'510.4
2018-Feb-16 11:30N 28°50' W 014°34'510.4
2018-Feb-16 11:00N 28°46' W 014°38'510.4
2018-Feb-16 10:30N 28°42' W 014°41'510.3
2018-Feb-16 10:00N 28°38' W 014°45'510.0
2018-Feb-16 09:30N 28°34' W 014°49'5 9.8
2018-Feb-16 09:00N 28°31' W 014°52'5 9.8
2018-Feb-16 08:30N 28°27' W 014°56'510.1
2018-Feb-16 08:00N 28°23' W 014°59'510.3
2018-Feb-16 07:31N 28°19' W 015°03'5 9.8
2018-Feb-16 07:00N 28°15' W 015°06'5 9.8
2018-Feb-16 06:30N 28°11' W 015°10'5 9.9
2018-Feb-16 06:00N 28°08' W 015°13'510.0
2018-Feb-16 05:30N 28°04' W 015°17'510.1
2018-Feb-16 05:00N 27°60' W 015°20'2 1.1
2018-Feb-16 03:01N 27°59' W 015°23'0 0.0
2018-Feb-15 21:07N 27°59' W 015°23'0 0.0
2018-Feb-15 20:49N 27°59' W 015°23'0 0.0
2018-Feb-15 16:32N 27°59' W 015°23'0 0.0
2018-Feb-15 16:17N 27°59' W 015°23'0 0.0
2018-Feb-15 14:37N 27°59' W 015°23'0 0.0
2018-Feb-15 13:31N 27°59' W 015°23'0 0.0
2018-Feb-15 12:18N 27°59' W 015°23'0 0.0
2018-Feb-15 11:51N 27°59' W 015°23'0 0.0
2018-Feb-15 10:39N 27°59' W 015°23'0 0.0
2018-Feb-15 10:27N 27°59' W 015°23'0 0.0
2018-Feb-15 10:01N 27°59' W 015°23'0 0.0
2018-Feb-15 09:28N 27°59' W 015°23'0 1.0
2018-Feb-15 09:00N 27°58' W 015°22'0 0.4
2018-Feb-15 08:30N 27°58' W 015°22'0 0.2
2018-Feb-15 08:00N 27°58' W 015°22'3 6.7
2018-Feb-15 07:30N 28°01' W 015°20'510.3
2018-Feb-15 06:59N 28°04' W 015°15'510.3
2018-Feb-15 06:30N 28°08' W 015°12'510.2
2018-Feb-15 06:00N 28°12' W 015°08'510.6
2018-Feb-15 05:30N 28°16' W 015°04'510.4
2018-Feb-15 05:00N 28°20' W 014°60'510.2
2018-Feb-15 04:30N 28°23' W 014°56'510.1
2018-Feb-15 04:00N 28°27' W 014°52'510.3
2018-Feb-15 03:30N 28°31' W 014°48'510.1
2018-Feb-15 03:00N 28°34' W 014°44'510.1
2018-Feb-15 02:30N 28°38' W 014°40'510.2
2018-Feb-15 02:00N 28°42' W 014°36'510.2
2018-Feb-15 01:30N 28°46' W 014°32'510.1
2018-Feb-15 01:00N 28°49' W 014°28'510.1
2018-Feb-15 00:30N 28°53' W 014°24'510.4
2018-Feb-15 00:00N 28°57' W 014°20'510.4
2018-Feb-14 23:30N 29°01' W 014°16'510.4
2018-Feb-14 23:00N 29°04' W 014°12'510.4
2018-Feb-14 22:30N 29°08' W 014°08'510.3
2018-Feb-14 22:00N 29°12' W 014°04'510.4
2018-Feb-14 21:29N 29°16' W 013°59'510.2
2018-Feb-14 21:00N 29°19' W 013°56'610.0
2018-Feb-14 20:26N 29°24' W 013°51'3410.1
2018-Feb-14 17:04N 29°48' W 013°25'3910.2
2018-Feb-14 13:16N 30°17' W 012°54'310.4
2018-Feb-14 13:00N 30°19' W 012°52'510.3
2018-Feb-14 12:30N 30°22' W 012°48'510.2
2018-Feb-14 12:00N 30°26' W 012°44'610.5
2018-Feb-14 11:28N 30°30' W 012°39'483 9.9
2018-Feb-12 10:25N 35°58' W 005°35'3 8.3
2018-Feb-12 10:00N 35°59' W 005°31'4 7.7
2018-Feb-12 09:30N 36°00' W 005°26'4 7.8
2018-Feb-12 09:00N 36°04' W 005°23'7 0.4
2018-Feb-11 14:35N 36°11' W 005°24'0 0.0
2018-Feb-11 14:25N 36°11' W 005°24'2 0.2
2018-Feb-11 07:29N 36°10' W 005°26'0 0.0
2018-Feb-11 06:44N 36°10' W 005°26'0 0.0
2018-Feb-11 06:29N 36°10' W 005°26'0 0.0
2018-Feb-11 05:58N 36°10' W 005°26'0 0.0
2018-Feb-11 05:04N 36°10' W 005°26'0 0.1
2018-Feb-11 04:52N 36°10' W 005°26'0 0.0
2018-Feb-11 04:04N 36°10' W 005°26'0 0.1
2018-Feb-11 03:58N 36°10' W 005°26'0 0.0
2018-Feb-11 03:18N 36°10' W 005°26'0 0.0
2018-Feb-10 14:46N 36°10' W 005°26'0 0.0
2018-Feb-10 14:25N 36°10' W 005°26'0 0.0
2018-Feb-10 13:24N 36°10' W 005°26'0 0.0
2018-Feb-10 09:04N 36°10' W 005°26'0 0.0
2018-Feb-10 08:37N 36°10' W 005°26'0 0.0
2018-Feb-10 06:36N 36°10' W 005°26'0 0.1
2018-Feb-10 06:24N 36°10' W 005°26'0 0.0
2018-Feb-10 02:32N 36°10' W 005°26'0 0.0
2018-Feb-10 02:07N 36°10' W 005°26'0 0.0
2018-Feb-10 01:58N 36°10' W 005°26'0 0.0
2018-Feb-10 01:28N 36°10' W 005°26'0 0.0
2018-Feb-10 00:55N 36°10' W 005°26'0 0.0
2018-Feb-10 00:28N 36°10' W 005°26'0 0.1
2018-Feb-09 23:57N 36°10' W 005°26'11 0.3
2018-Feb-08 15:30N 36°05' W 005°14'1 1.2
2018-Feb-08 15:00N 36°05' W 005°14'2 2.3
2018-Feb-08 14:00N 36°05' W 005°17'2 1.2
2018-Feb-08 12:30N 36°03' W 005°17'5 9.1
2018-Feb-08 12:00N 36°02' W 005°11'8 0.2
2018-Feb-07 05:19N 35°55' W 005°14'311.3
2018-Feb-07 05:00N 35°55' W 005°18'2 3.0
2018-Feb-07 04:27N 35°54' W 005°19'0 0.0
2018-Feb-07 04:00N 35°54' W 005°19'0 0.0
2018-Feb-07 03:27N 35°54' W 005°19'0 0.0
2018-Feb-07 02:57N 35°54' W 005°19'0 0.0
2018-Feb-07 02:29N 35°54' W 005°19'0 0.0
2018-Feb-07 01:59N 35°54' W 005°19'0 0.0
2018-Feb-07 01:29N 35°54' W 005°19'0 0.0
2018-Feb-07 00:59N 35°54' W 005°19'0 0.0
2018-Feb-07 00:29N 35°54' W 005°19'0 0.0
2018-Feb-06 23:58N 35°54' W 005°19'0 0.0
2018-Feb-06 23:28N 35°54' W 005°19'0 0.0
2018-Feb-06 22:58N 35°54' W 005°19'0 0.0
2018-Feb-06 22:28N 35°54' W 005°19'  
Track history (hours):
 
Tides and Currents Weather Stations Pressure Air Temp Water Temp Dewpoint Dewpoint Depression Visibility Wind Speed Wind Dir Waves Ship Positions

Ceska

Last reported at 2018-Feb-16 22:08 UTC. Time now 2018-Feb-19 14:22 UTC.
Position N 30°06' W 013°24'.

Length 75 m; draft 5 m.

Type: Ship (hazmat cat A). MMSI: 255801990.

Date/timePositionNaut miles runAvg speedWind from/ knotsBaromVisibWave heightAir tempDewpointWater temp
2018-Feb-16 22:08N 30°06' W 013°24'0 1.0
2018-Feb-16 21:44N 30°06' W 013°23'0 0.9
2018-Feb-16 21:30N 30°07' W 013°23'28 9.2
2018-Feb-16 18:30N 29°45' W 013°43'9 9.9
2018-Feb-16 17:34N 29°38' W 013°50'1 9.9
2018-Feb-16 17:27N 29°37' W 013°51'7 9.8
2018-Feb-16 16:48N 29°32' W 013°55'3 9.8
2018-Feb-16 16:30N 29°30' W 013°57'3510.0
2018-Feb-16 12:58N 29°02' W 014°23'510.3
2018-Feb-16 12:30N 28°58' W 014°26'510.3
2018-Feb-16 12:00N 28°55' W 014°30'510.4
2018-Feb-16 11:30N 28°50' W 014°34'510.4
2018-Feb-16 11:00N 28°46' W 014°38'510.4
2018-Feb-16 10:30N 28°42' W 014°41'510.3
2018-Feb-16 10:00N 28°38' W 014°45'510.0
2018-Feb-16 09:30N 28°34' W 014°49'5 9.8
2018-Feb-16 09:00N 28°31' W 014°52'5 9.8
2018-Feb-16 08:30N 28°27' W 014°56'510.1
2018-Feb-16 08:00N 28°23' W 014°59'510.3
2018-Feb-16 07:31N 28°19' W 015°03'5 9.8
2018-Feb-16 07:00N 28°15' W 015°06'5 9.8
2018-Feb-16 06:30N 28°11' W 015°10'5 9.9
2018-Feb-16 06:00N 28°08' W 015°13'510.0
2018-Feb-16 05:30N 28°04' W 015°17'510.1
2018-Feb-16 05:00N 27°60' W 015°20'2 1.1
2018-Feb-16 03:01N 27°59' W 015°23'0 0.0
2018-Feb-15 21:07N 27°59' W 015°23'0 0.0
2018-Feb-15 20:49N 27°59' W 015°23'0 0.0
2018-Feb-15 16:32N 27°59' W 015°23'0 0.0
2018-Feb-15 16:17N 27°59' W 015°23'0 0.0
2018-Feb-15 14:37N 27°59' W 015°23'0 0.0
2018-Feb-15 13:31N 27°59' W 015°23'0 0.0
2018-Feb-15 12:18N 27°59' W 015°23'0 0.0
2018-Feb-15 11:51N 27°59' W 015°23'0 0.0
2018-Feb-15 10:39N 27°59' W 015°23'0 0.0
2018-Feb-15 10:27N 27°59' W 015°23'0 0.0
2018-Feb-15 10:01N 27°59' W 015°23'0 0.0
2018-Feb-15 09:28N 27°59' W 015°23'0 1.0
2018-Feb-15 09:00N 27°58' W 015°22'0 0.4
2018-Feb-15 08:30N 27°58' W 015°22'0 0.2
2018-Feb-15 08:00N 27°58' W 015°22'3 6.7
2018-Feb-15 07:30N 28°01' W 015°20'510.3
2018-Feb-15 06:59N 28°04' W 015°15'510.3
2018-Feb-15 06:30N 28°08' W 015°12'510.2
2018-Feb-15 06:00N 28°12' W 015°08'510.6
2018-Feb-15 05:30N 28°16' W 015°04'510.4
2018-Feb-15 05:00N 28°20' W 014°60'510.2
2018-Feb-15 04:30N 28°23' W 014°56'510.1
2018-Feb-15 04:00N 28°27' W 014°52'510.3
2018-Feb-15 03:30N 28°31' W 014°48'510.1
2018-Feb-15 03:00N 28°34' W 014°44'510.1
2018-Feb-15 02:30N 28°38' W 014°40'510.2
2018-Feb-15 02:00N 28°42' W 014°36'510.2
2018-Feb-15 01:30N 28°46' W 014°32'510.1
2018-Feb-15 01:00N 28°49' W 014°28'510.1
2018-Feb-15 00:30N 28°53' W 014°24'510.4
2018-Feb-15 00:00N 28°57' W 014°20'510.4
2018-Feb-14 23:30N 29°01' W 014°16'510.4
2018-Feb-14 23:00N 29°04' W 014°12'510.4
2018-Feb-14 22:30N 29°08' W 014°08'510.3
2018-Feb-14 22:00N 29°12' W 014°04'510.4
2018-Feb-14 21:29N 29°16' W 013°59'510.2
2018-Feb-14 21:00N 29°19' W 013°56'610.0
2018-Feb-14 20:26N 29°24' W 013°51'3410.1
2018-Feb-14 17:04N 29°48' W 013°25'3910.2
2018-Feb-14 13:16N 30°17' W 012°54'310.4
2018-Feb-14 13:00N 30°19' W 012°52'510.3
2018-Feb-14 12:30N 30°22' W 012°48'510.2
2018-Feb-14 12:00N 30°26' W 012°44'610.5
2018-Feb-14 11:28N 30°30' W 012°39'483 9.9
2018-Feb-12 10:25N 35°58' W 005°35'3 8.3
2018-Feb-12 10:00N 35°59' W 005°31'4 7.7
2018-Feb-12 09:30N 36°00' W 005°26'4 7.8
2018-Feb-12 09:00N 36°04' W 005°23'7 0.4
2018-Feb-11 14:35N 36°11' W 005°24'0 0.0
2018-Feb-11 14:25N 36°11' W 005°24'2 0.2
2018-Feb-11 07:29N 36°10' W 005°26'0 0.0
2018-Feb-11 06:44N 36°10' W 005°26'0 0.0
2018-Feb-11 06:29N 36°10' W 005°26'0 0.0
2018-Feb-11 05:58N 36°10' W 005°26'0 0.0
2018-Feb-11 05:04N 36°10' W 005°26'0 0.1
2018-Feb-11 04:52N 36°10' W 005°26'0 0.0
2018-Feb-11 04:04N 36°10' W 005°26'0 0.1
2018-Feb-11 03:58N 36°10' W 005°26'0 0.0
2018-Feb-11 03:18N 36°10' W 005°26'0 0.0
2018-Feb-10 14:46N 36°10' W 005°26'0 0.0
2018-Feb-10 14:25N 36°10' W 005°26'0 0.0
2018-Feb-10 13:24N 36°10' W 005°26'0 0.0
2018-Feb-10 09:04N 36°10' W 005°26'0 0.0
2018-Feb-10 08:37N 36°10' W 005°26'0 0.0
2018-Feb-10 06:36N 36°10' W 005°26'0 0.1
2018-Feb-10 06:24N 36°10' W 005°26'0 0.0
2018-Feb-10 02:32N 36°10' W 005°26'0 0.0
2018-Feb-10 02:07N 36°10' W 005°26'0 0.0
2018-Feb-10 01:58N 36°10' W 005°26'0 0.0
2018-Feb-10 01:28N 36°10' W 005°26'0 0.0
2018-Feb-10 00:55N 36°10' W 005°26'0 0.0
2018-Feb-10 00:28N 36°10' W 005°26'0 0.1
2018-Feb-09 23:57N 36°10' W 005°26'11 0.3
2018-Feb-08 15:30N 36°05' W 005°14'1 1.2
2018-Feb-08 15:00N 36°05' W 005°14'2 2.3
2018-Feb-08 14:00N 36°05' W 005°17'2 1.2
2018-Feb-08 12:30N 36°03' W 005°17'5 9.1
2018-Feb-08 12:00N 36°02' W 005°11'8 0.2
2018-Feb-07 05:19N 35°55' W 005°14'311.3
2018-Feb-07 05:00N 35°55' W 005°18'2 3.0
2018-Feb-07 04:27N 35°54' W 005°19'0 0.0
2018-Feb-07 04:00N 35°54' W 005°19'0 0.0
2018-Feb-07 03:27N 35°54' W 005°19'0 0.0
2018-Feb-07 02:57N 35°54' W 005°19'0 0.0
2018-Feb-07 02:29N 35°54' W 005°19'0 0.0
2018-Feb-07 01:59N 35°54' W 005°19'0 0.0
2018-Feb-07 01:29N 35°54' W 005°19'0 0.0
2018-Feb-07 00:59N 35°54' W 005°19'0 0.0
2018-Feb-07 00:29N 35°54' W 005°19'0 0.0
2018-Feb-06 23:58N 35°54' W 005°19'0 0.0
2018-Feb-06 23:28N 35°54' W 005°19'0 0.0
2018-Feb-06 22:58N 35°54' W 005°19'0 0.0
2018-Feb-06 22:28N 35°54' W 005°19'  

Dump ship's entire track history